createdAt,value
2019-01-16T00:01:07.496Z,9.37
2019-01-16T00:03:43.071Z,9.77
2019-01-16T00:06:13.077Z,10.97
2019-01-16T00:08:51.551Z,8.43
2019-01-16T00:11:23.999Z,8.33
2019-01-16T00:13:54.011Z,8.47
2019-01-16T00:16:23.979Z,13.53
2019-01-16T00:18:59.796Z,10.47
2019-01-16T00:21:29.790Z,8.30
2019-01-16T00:24:13.277Z,11.07
2019-01-16T00:26:54.585Z,12.70
2019-01-16T00:29:33.589Z,10.00
2019-01-16T00:32:09.482Z,7.57
2019-01-16T00:34:42.232Z,10.50
2019-01-16T00:37:18.296Z,9.63
2019-01-16T00:40:00.219Z,7.67
2019-01-16T00:42:30.115Z,8.77
2019-01-16T00:45:16.110Z,7.70
2019-01-16T00:48:02.528Z,13.57
2019-01-16T00:50:41.059Z,16.80
2019-01-16T00:53:16.647Z,12.70
2019-01-16T00:55:58.299Z,10.17
2019-01-16T00:58:40.400Z,12.37
2019-01-16T01:01:13.300Z,11.70
2019-01-16T01:03:51.917Z,7.80
2019-01-16T01:06:21.864Z,10.43
2019-01-16T01:08:57.280Z,9.17
2019-01-16T01:11:27.279Z,10.33
2019-01-16T01:14:13.222Z,9.63
2019-01-16T01:16:58.387Z,13.30
2019-01-16T01:19:34.058Z,12.70
2019-01-16T01:22:20.475Z,14.03
2019-01-16T01:24:50.504Z,15.07
2019-01-16T01:27:23.370Z,10.30
2019-01-16T01:29:58.256Z,15.47
2019-01-16T01:32:44.113Z,11.30
2019-01-16T01:35:16.541Z,9.27
2019-01-16T01:37:49.214Z,15.60
2019-01-16T01:40:31.109Z,10.70
2019-01-16T01:43:06.898Z,10.17
2019-01-16T01:45:39.463Z,12.03
2019-01-16T01:48:18.047Z,12.50
2019-01-16T01:50:53.442Z,12.53
2019-01-16T01:53:23.385Z,13.93
2019-01-16T01:56:09.603Z,10.47
2019-01-16T01:58:42.361Z,12.83
2019-01-16T02:01:28.659Z,11.50
2019-01-16T02:04:14.628Z,14.07
2019-01-16T02:06:56.580Z,8.63
2019-01-16T02:09:26.522Z,10.00
2019-01-16T02:11:59.083Z,13.77
2019-01-16T02:14:41.199Z,9.83
2019-01-16T02:17:11.127Z,10.50
2019-01-16T02:19:44.010Z,15.40
2019-01-16T02:22:29.992Z,11.57
2019-01-16T02:25:03.017Z,15.50
2019-01-16T02:27:32.910Z,10.03
2019-01-16T02:30:15.072Z,12.43
2019-01-16T02:32:49.270Z,10.27
2019-01-16T02:35:37.339Z,13.07
2019-01-16T02:38:15.795Z,10.37
2019-01-16T02:40:48.212Z,13.70
2019-01-16T02:43:20.637Z,13.53
2019-01-16T02:45:53.761Z,11.90
2019-01-16T02:48:23.790Z,11.37
2019-01-16T02:51:09.796Z,11.73
2019-01-16T02:53:52.088Z,12.80
2019-01-16T02:56:30.500Z,14.90
2019-01-16T02:59:00.398Z,11.67
2019-01-16T03:01:34.740Z,12.83
2019-01-16T03:04:05.123Z,11.00
2019-01-16T03:06:52.128Z,14.93
2019-01-16T03:09:38.094Z,12.37
2019-01-16T03:12:20.271Z,14.47
2019-01-16T03:14:52.880Z,12.57
2019-01-16T03:17:28.655Z,13.50
2019-01-16T03:19:58.675Z,11.33
2019-01-16T03:22:28.617Z,13.80
2019-01-16T03:25:07.263Z,11.17
2019-01-16T03:27:37.153Z,13.80
2019-01-16T03:30:26.960Z,20.37
2019-01-16T03:32:56.919Z,14.77
2019-01-16T03:35:42.243Z,13.63
2019-01-16T03:38:12.128Z,12.57
2019-01-16T03:40:58.018Z,15.30
2019-01-16T03:43:36.646Z,13.20
2019-01-16T03:46:06.541Z,13.07
2019-01-16T03:48:36.502Z,18.63
2019-01-16T03:51:06.392Z,13.43
2019-01-16T03:53:52.691Z,14.73
2019-01-16T03:56:25.206Z,14.93
2019-01-16T03:59:03.747Z,18.63
2019-01-16T04:01:39.194Z,17.30
2019-01-16T04:04:09.296Z,17.70
2019-01-16T04:06:55.576Z,20.17
2019-01-16T04:09:41.738Z,20.53
2019-01-16T04:12:14.565Z,17.90
2019-01-16T04:14:50.338Z,14.57
2019-01-16T04:17:29.053Z,17.90
2019-01-16T04:20:04.759Z,19.27
2019-01-16T04:22:34.646Z,16.97
2019-01-16T04:25:19.847Z,15.93
2019-01-16T04:27:50.023Z,19.33
2019-01-16T04:30:28.918Z,17.00
2019-01-16T04:33:01.777Z,18.70
2019-01-16T04:35:31.667Z,15.97
2019-01-16T04:38:02.020Z,17.37
2019-01-16T04:40:48.512Z,21.63
2019-01-16T04:43:21.392Z,16.23
2019-01-16T04:46:00.860Z,14.53
2019-01-16T04:48:35.470Z,17.57
2019-01-16T04:51:09.857Z,20.00
2019-01-16T04:53:42.403Z,16.67
2019-01-16T04:56:28.415Z,18.27
2019-01-16T04:59:01.257Z,20.03
2019-01-16T05:01:35.749Z,23.50
2019-01-16T05:04:23.804Z,24.73
2019-01-16T05:07:10.061Z,19.80
2019-01-16T05:09:56.000Z,24.40
2019-01-16T05:12:29.526Z,21.60
2019-01-16T05:15:05.021Z,22.10
2019-01-16T05:17:51.278Z,18.00
2019-01-16T05:20:23.858Z,20.33
2019-01-16T05:23:04.484Z,21.37
2019-01-16T05:25:50.644Z,19.77
2019-01-16T05:28:37.330Z,23.23
2019-01-16T05:31:13.130Z,20.00
2019-01-16T05:33:43.351Z,18.20
2019-01-16T05:36:22.658Z,20.23
2019-01-16T05:38:55.672Z,20.67
2019-01-16T05:41:47.642Z,18.43
2019-01-16T05:44:17.957Z,22.77
2019-01-16T05:46:48.303Z,22.47
2019-01-16T05:49:19.658Z,18.43
2019-01-16T05:52:07.839Z,22.53
2019-01-16T05:54:37.969Z,22.10
2019-01-16T05:57:24.127Z,24.37
2019-01-16T06:00:10.218Z,21.90
2019-01-16T06:02:55.464Z,23.10
2019-01-16T06:05:43.672Z,18.67
2019-01-16T06:08:19.857Z,22.47
2019-01-16T06:10:55.663Z,18.57
2019-01-16T06:13:25.678Z,20.17
2019-01-16T06:16:13.893Z,23.57
2019-01-16T06:18:49.332Z,19.33
2019-01-16T06:21:19.254Z,21.07
2019-01-16T06:24:05.199Z,20.23
2019-01-16T06:26:40.878Z,22.07
2019-01-16T06:29:26.930Z,22.17
2019-01-16T06:32:11.982Z,22.97
2019-01-16T06:34:58.282Z,24.07
2019-01-16T06:37:39.889Z,20.37
2019-01-16T06:40:26.948Z,26.30
2019-01-16T06:42:56.830Z,27.73
2019-01-16T06:45:26.748Z,21.83
2019-01-16T06:48:05.901Z,23.27
2019-01-16T06:50:38.552Z,23.23
2019-01-16T06:53:11.104Z,26.77
2019-01-16T06:55:49.900Z,22.30
2019-01-16T06:58:19.812Z,21.83
2019-01-16T07:01:06.141Z,27.10
2019-01-16T07:03:36.026Z,21.67
2019-01-16T07:06:22.090Z,24.13
2019-01-16T07:08:57.962Z,25.50
2019-01-16T07:11:27.864Z,22.93
2019-01-16T07:13:57.838Z,23.47
2019-01-16T07:16:33.465Z,25.23
2019-01-16T07:19:18.370Z,22.60
2019-01-16T07:21:57.052Z,21.10
2019-01-16T07:24:38.923Z,19.73
2019-01-16T07:27:08.852Z,22.53
2019-01-16T07:29:54.951Z,22.93
2019-01-16T07:32:42.951Z,22.50
2019-01-16T07:35:24.826Z,20.37
2019-01-16T07:38:00.393Z,21.33
2019-01-16T07:40:48.392Z,23.97
2019-01-16T07:43:21.119Z,25.67
2019-01-16T07:46:07.181Z,27.57
2019-01-16T07:48:37.116Z,23.80
2019-01-16T07:51:23.506Z,25.83
2019-01-16T07:53:55.999Z,25.73
2019-01-16T07:56:25.962Z,24.53
2019-01-16T07:58:59.024Z,25.53
2019-01-16T08:01:31.771Z,25.57
2019-01-16T08:04:01.668Z,26.40
2019-01-16T08:06:34.034Z,23.20
2019-01-16T08:09:06.843Z,29.07
2019-01-16T08:11:53.060Z,27.47
2019-01-16T08:14:25.654Z,28.03
2019-01-16T08:16:55.545Z,23.70
2019-01-16T08:19:41.930Z,29.37
2019-01-16T08:22:20.495Z,30.33
2019-01-16T08:24:59.290Z,29.33
2019-01-16T08:27:34.956Z,32.40
2019-01-16T08:30:13.943Z,31.87
2019-01-16T08:32:46.643Z,31.47
2019-01-16T08:35:22.290Z,26.30
2019-01-16T08:38:08.393Z,29.53
2019-01-16T08:40:38.280Z,27.53
2019-01-16T08:43:10.792Z,31.50
2019-01-16T08:45:46.884Z,28.17
2019-01-16T08:48:32.836Z,29.37
2019-01-16T08:51:05.354Z,30.40
2019-01-16T08:53:51.684Z,32.57
2019-01-16T08:56:21.561Z,27.47
2019-01-16T08:59:01.978Z,26.40
2019-01-16T09:01:48.008Z,29.83
2019-01-16T09:04:23.850Z,23.80
2019-01-16T09:07:09.070Z,27.80
2019-01-16T09:09:41.796Z,28.90
2019-01-16T09:12:20.959Z,31.43
2019-01-16T09:15:06.082Z,32.77
2019-01-16T09:17:42.398Z,33.00
2019-01-16T09:20:16.109Z,27.90
2019-01-16T09:22:46.166Z,23.87
2019-01-16T09:25:34.423Z,24.93
2019-01-16T09:28:20.321Z,22.47
2019-01-16T09:31:06.390Z,27.90
2019-01-16T09:33:52.878Z,25.83
2019-01-16T09:36:22.847Z,22.97
2019-01-16T09:38:56.325Z,21.70
2019-01-16T09:41:26.298Z,23.23
2019-01-16T09:44:05.395Z,23.97
2019-01-16T09:46:44.559Z,23.60
2019-01-16T09:49:23.413Z,21.13
2019-01-16T09:51:55.832Z,22.73
2019-01-16T09:54:41.801Z,22.63
2019-01-16T09:57:27.653Z,21.63
2019-01-16T10:00:12.496Z,22.67
2019-01-16T10:02:57.305Z,24.33
2019-01-16T10:05:36.188Z,19.40
2019-01-16T10:08:06.110Z,23.47
2019-01-16T10:10:54.487Z,20.50
2019-01-16T10:13:24.383Z,24.63
2019-01-16T10:16:10.134Z,25.17
2019-01-16T10:18:54.844Z,21.67
2019-01-16T10:21:27.665Z,22.77
2019-01-16T10:23:57.594Z,22.90
2019-01-16T10:26:27.496Z,20.43
2019-01-16T10:29:13.570Z,17.10
2019-01-16T10:31:46.405Z,17.83
2019-01-16T10:34:16.306Z,23.53
2019-01-16T10:36:48.632Z,25.07
2019-01-16T10:39:30.305Z,20.73
2019-01-16T10:42:06.013Z,18.73
2019-01-16T10:44:38.887Z,12.23
2019-01-16T10:47:17.553Z,22.43
2019-01-16T10:49:50.239Z,14.13
2019-01-16T10:52:36.243Z,14.57
2019-01-16T10:55:09.339Z,12.50
2019-01-16T10:57:39.261Z,14.30
2019-01-16T11:00:18.173Z,16.50
2019-01-16T11:02:51.044Z,16.23
2019-01-16T11:05:36.935Z,14.90
2019-01-16T11:08:09.648Z,15.13
2019-01-16T11:10:42.321Z,16.03
2019-01-16T11:13:18.173Z,16.63
2019-01-16T11:15:48.063Z,12.80
2019-01-16T11:18:20.628Z,14.23
2019-01-16T11:20:50.625Z,16.23
2019-01-16T11:23:20.597Z,13.07
2019-01-16T11:26:05.516Z,16.20
2019-01-16T11:28:50.719Z,13.77
2019-01-16T11:31:36.544Z,12.37
2019-01-16T11:34:06.516Z,13.13
2019-01-16T11:36:52.263Z,11.60
2019-01-16T11:39:27.803Z,14.97
2019-01-16T11:42:06.674Z,16.57
2019-01-16T11:44:51.576Z,19.53
2019-01-16T11:47:33.300Z,15.93
2019-01-16T11:50:19.156Z,13.30
2019-01-16T11:53:05.292Z,15.60
2019-01-16T11:55:52.349Z,13.00
2019-01-16T11:58:22.245Z,13.33
2019-01-16T12:00:53.146Z,13.23
2019-01-16T12:03:26.095Z,15.03
2019-01-16T12:06:01.982Z,10.83
2019-01-16T12:08:34.660Z,16.07
2019-01-16T12:11:07.471Z,11.70
2019-01-16T12:13:43.143Z,13.73
2019-01-16T12:16:13.100Z,13.80
2019-01-16T12:18:49.407Z,15.70
2019-01-16T12:21:26.153Z,12.67
2019-01-16T12:23:54.034Z,17.80
2019-01-16T12:26:23.928Z,12.87
2019-01-16T12:28:56.957Z,15.30
2019-01-16T12:31:45.236Z,11.60
2019-01-16T12:34:17.578Z,11.60
2019-01-16T12:36:47.581Z,13.60
2019-01-16T12:39:33.836Z,13.03
2019-01-16T12:42:12.401Z,11.17
2019-01-16T12:44:42.363Z,10.77
2019-01-16T12:47:18.306Z,11.23
2019-01-16T12:49:53.994Z,10.60
2019-01-16T12:52:32.902Z,10.27
2019-01-16T12:55:05.325Z,10.43
2019-01-16T12:57:38.041Z,15.50
2019-01-16T13:00:11.211Z,10.03
2019-01-16T13:02:41.282Z,11.27
2019-01-16T13:05:17.229Z,12.10
2019-01-16T13:07:47.206Z,13.50
2019-01-16T13:10:17.296Z,9.73
2019-01-16T13:12:47.347Z,11.27
2019-01-16T13:15:19.977Z,12.47
2019-01-16T13:17:52.686Z,10.63
2019-01-16T13:20:28.721Z,9.50
2019-01-16T13:23:01.283Z,9.07
2019-01-16T13:25:47.067Z,8.83
2019-01-16T13:28:32.017Z,7.80
2019-01-16T13:31:01.952Z,10.93
2019-01-16T13:33:34.699Z,10.80
2019-01-16T13:36:23.008Z,9.23
2019-01-16T13:38:58.569Z,10.23
2019-01-16T13:41:44.636Z,12.07
2019-01-16T13:44:26.503Z,7.50
2019-01-16T13:47:08.405Z,9.93
2019-01-16T13:49:43.978Z,10.33
2019-01-16T13:52:19.375Z,7.97
2019-01-16T13:55:05.125Z,6.70
2019-01-16T13:57:35.092Z,8.93
2019-01-16T14:00:06.233Z,8.20
2019-01-16T14:02:39.431Z,9.63
2019-01-16T14:05:10.510Z,7.20
2019-01-16T14:07:56.641Z,11.83
2019-01-16T14:10:28.192Z,11.93
2019-01-16T14:13:13.176Z,15.40
2019-01-16T14:15:59.299Z,11.00
2019-01-16T14:18:29.266Z,10.90
2019-01-16T14:21:01.625Z,10.60
2019-01-16T14:23:31.534Z,10.00
2019-01-16T14:26:04.319Z,14.60
2019-01-16T14:28:34.349Z,14.07
2019-01-16T14:31:10.025Z,11.97
2019-01-16T14:33:56.038Z,11.27
2019-01-16T14:36:42.476Z,11.30
2019-01-16T14:39:12.482Z,10.87
2019-01-16T14:41:58.485Z,10.10
2019-01-16T14:44:37.400Z,8.83
2019-01-16T14:47:16.128Z,8.77
2019-01-16T14:49:57.696Z,7.70
2019-01-16T14:52:30.273Z,8.13
2019-01-16T14:55:05.876Z,7.27
2019-01-16T14:57:48.279Z,12.40
2019-01-16T15:00:34.284Z,9.47
2019-01-16T15:03:04.206Z,12.17
2019-01-16T15:05:34.072Z,8.93
2019-01-16T15:08:03.967Z,8.43
2019-01-16T15:10:36.498Z,10.17
2019-01-16T15:13:09.159Z,9.00
2019-01-16T15:15:44.567Z,9.70
2019-01-16T15:18:28.368Z,7.73
2019-01-16T15:20:58.358Z,10.33
2019-01-16T15:23:28.249Z,8.47
2019-01-16T15:25:58.190Z,11.80
2019-01-16T15:28:28.076Z,7.73
2019-01-16T15:31:03.718Z,9.77
2019-01-16T15:33:45.921Z,9.60
2019-01-16T15:36:33.565Z,7.97
2019-01-16T15:39:03.513Z,9.07
2019-01-16T15:41:36.506Z,10.20
2019-01-16T15:44:22.180Z,7.50
2019-01-16T15:46:52.062Z,9.50
2019-01-16T15:49:22.059Z,12.70
2019-01-16T15:52:03.908Z,9.00
2019-01-16T15:54:39.891Z,17.03
2019-01-16T15:57:09.805Z,11.07
2019-01-16T15:59:39.691Z,12.07
2019-01-16T16:02:12.643Z,13.07
2019-01-16T16:04:42.594Z,11.87
2019-01-16T16:07:24.467Z,18.93
2019-01-16T16:10:03.043Z,10.90
2019-01-16T16:12:35.992Z,12.83
2019-01-16T16:15:10.877Z,13.13
2019-01-16T16:17:43.508Z,14.67
2019-01-16T16:20:29.834Z,12.87
2019-01-16T16:23:16.207Z,14.13
2019-01-16T16:25:46.095Z,15.00
2019-01-16T16:28:24.785Z,14.17
2019-01-16T16:31:09.739Z,12.03
2019-01-16T16:33:51.539Z,12.70
2019-01-16T16:36:33.361Z,11.13
2019-01-16T16:39:19.207Z,14.10
2019-01-16T16:42:04.909Z,16.57
2019-01-16T16:44:37.940Z,14.83
2019-01-16T16:47:19.768Z,14.47
2019-01-16T16:49:49.660Z,14.83
2019-01-16T16:52:37.677Z,13.37
2019-01-16T16:55:16.297Z,14.53
2019-01-16T16:57:48.659Z,16.03
2019-01-16T17:00:30.491Z,13.43
2019-01-16T17:03:00.389Z,13.53
2019-01-16T17:05:33.278Z,17.13
2019-01-16T17:08:03.178Z,32.33
2019-01-16T17:10:35.805Z,17.67
2019-01-16T17:13:05.710Z,18.57
2019-01-16T17:15:38.621Z,18.87
2019-01-16T17:18:08.522Z,15.00
2019-01-16T17:20:54.210Z,20.27
2019-01-16T17:23:42.371Z,22.13
2019-01-16T17:26:12.289Z,18.77
2019-01-16T17:28:47.893Z,20.40
2019-01-16T17:31:17.886Z,21.67
2019-01-16T17:33:59.765Z,17.27
2019-01-16T17:36:35.699Z,23.03
2019-01-16T17:39:12.862Z,20.13
2019-01-16T17:41:42.789Z,22.67
2019-01-16T17:44:12.763Z,20.10
2019-01-16T17:47:01.096Z,24.93
2019-01-16T17:49:33.577Z,23.10
2019-01-16T17:52:06.233Z,23.27
2019-01-16T17:54:42.075Z,21.63
2019-01-16T17:57:23.913Z,28.83
2019-01-16T18:00:02.290Z,24.70
2019-01-16T18:02:37.946Z,26.73
2019-01-16T18:05:26.239Z,25.77
2019-01-16T18:07:56.158Z,24.27
2019-01-16T18:10:26.099Z,22.43
2019-01-16T18:13:13.931Z,20.20
2019-01-16T18:15:59.955Z,20.17
2019-01-16T18:18:46.129Z,24.07
2019-01-16T18:21:18.906Z,20.20
2019-01-16T18:23:51.320Z,23.27
2019-01-16T18:26:21.226Z,22.70
2019-01-16T18:28:51.138Z,24.00
2019-01-16T18:31:23.821Z,24.20
2019-01-16T18:33:59.656Z,24.90
2019-01-16T18:36:32.466Z,20.23
2019-01-16T18:39:02.371Z,23.07
2019-01-16T18:41:35.039Z,25.20
2019-01-16T18:44:23.192Z,24.07
2019-01-16T18:47:05.210Z,28.63
2019-01-16T18:49:35.142Z,26.27
2019-01-16T18:52:05.048Z,28.90
2019-01-16T18:54:53.060Z,27.50
2019-01-16T18:57:22.988Z,26.60
2019-01-16T18:59:52.886Z,29.93
2019-01-16T19:02:37.787Z,28.40
2019-01-16T19:05:12.317Z,28.10
2019-01-16T19:07:51.229Z,32.90
2019-01-16T19:10:21.140Z,31.00
2019-01-16T19:13:07.240Z,29.57
2019-01-16T19:15:43.000Z,30.67
2019-01-16T19:18:12.901Z,27.67
2019-01-16T19:20:45.554Z,27.60
2019-01-16T19:23:23.963Z,29.00
2019-01-16T19:25:56.570Z,28.20
2019-01-16T19:28:26.474Z,29.07
2019-01-16T19:31:08.286Z,26.60
2019-01-16T19:33:40.904Z,30.00
2019-01-16T19:36:13.954Z,30.47
2019-01-16T19:38:43.858Z,28.23
2019-01-16T19:41:13.751Z,30.33
2019-01-16T19:43:59.963Z,29.57
2019-01-16T19:46:38.608Z,31.73
2019-01-16T19:49:17.478Z,33.27
2019-01-16T19:51:50.420Z,32.93
2019-01-16T19:54:20.311Z,31.27
2019-01-16T19:57:06.696Z,35.70
2019-01-16T19:59:39.709Z,33.73
2019-01-16T20:02:25.561Z,33.50
2019-01-16T20:04:55.480Z,35.90
2019-01-16T20:07:28.524Z,34.43
2019-01-16T20:09:58.417Z,32.27
2019-01-16T20:12:34.060Z,34.50
2019-01-16T20:15:06.663Z,36.20
2019-01-16T20:17:39.300Z,37.77
2019-01-16T20:20:28.258Z,30.93
2019-01-16T20:23:11.191Z,30.87
2019-01-16T20:25:56.987Z,28.57
2019-01-16T20:28:29.949Z,34.17
2019-01-16T20:31:08.898Z,27.60
2019-01-16T20:33:41.540Z,26.90
2019-01-16T20:36:14.165Z,26.67
2019-01-16T20:38:44.081Z,28.90
2019-01-16T20:41:14.023Z,24.73
2019-01-16T20:43:55.959Z,23.03
2019-01-16T20:46:31.641Z,26.77
2019-01-16T20:49:01.628Z,26.97
2019-01-16T20:51:47.699Z,25.13
2019-01-16T20:54:26.648Z,26.97
2019-01-16T20:56:56.614Z,20.93
2019-01-16T20:59:26.544Z,30.00
2019-01-16T21:01:59.422Z,21.03
2019-01-16T21:04:45.297Z,23.30
2019-01-16T21:07:24.422Z,21.23
2019-01-16T21:09:54.438Z,19.10
2019-01-16T21:12:30.065Z,22.13
2019-01-16T21:14:59.991Z,30.97
2019-01-16T21:17:35.696Z,24.43
2019-01-16T21:20:15.451Z,19.10
2019-01-16T21:22:45.478Z,20.97
2019-01-16T21:25:31.758Z,21.97
2019-01-16T21:28:13.475Z,23.97
2019-01-16T21:30:43.388Z,20.47
2019-01-16T21:33:16.262Z,22.83
2019-01-16T21:35:46.158Z,21.73
2019-01-16T21:38:16.053Z,23.33
2019-01-16T21:40:51.956Z,23.37
2019-01-16T21:43:24.529Z,24.27
2019-01-16T21:46:06.199Z,23.63
2019-01-16T21:48:52.212Z,21.40
2019-01-16T21:51:24.804Z,22.20
2019-01-16T21:53:57.294Z,27.43
2019-01-16T21:56:27.199Z,27.17
2019-01-16T21:58:57.120Z,29.93
2019-01-16T22:01:35.991Z,26.87
2019-01-16T22:04:21.208Z,28.20
2019-01-16T22:06:54.528Z,27.90
2019-01-16T22:09:44.340Z,25.53
2019-01-16T22:12:14.572Z,22.43
2019-01-16T22:14:53.897Z,21.97
2019-01-16T22:17:27.146Z,29.33
2019-01-16T22:20:12.290Z,27.00
2019-01-16T22:22:51.027Z,25.23
2019-01-16T22:25:21.195Z,27.63
2019-01-16T22:28:09.209Z,25.63
2019-01-16T22:30:45.180Z,26.97
2019-01-16T22:33:31.691Z,32.17
2019-01-16T22:36:01.582Z,24.40
2019-01-16T22:38:47.903Z,21.30
2019-01-16T22:41:24.159Z,19.40
2019-01-16T22:43:54.075Z,19.50
2019-01-16T22:46:32.803Z,20.27
2019-01-16T22:49:05.624Z,22.43
2019-01-16T22:51:35.566Z,22.00
2019-01-16T22:54:14.533Z,19.50
2019-01-16T22:56:46.886Z,18.60
2019-01-16T22:59:16.787Z,23.63
2019-01-16T23:01:46.677Z,21.97
2019-01-16T23:04:32.804Z,20.13
2019-01-16T23:07:02.726Z,21.60
2019-01-16T23:09:35.151Z,23.57
2019-01-16T23:12:20.981Z,22.27
2019-01-16T23:14:56.847Z,28.33
2019-01-16T23:17:29.415Z,22.77
2019-01-16T23:20:02.247Z,25.17
2019-01-16T23:22:48.238Z,31.50
2019-01-16T23:25:21.128Z,26.57
2019-01-16T23:27:56.579Z,28.33
2019-01-16T23:30:26.479Z,26.17
2019-01-16T23:32:56.381Z,30.17
2019-01-16T23:35:29.081Z,36.40
2019-01-16T23:38:08.158Z,31.67
2019-01-16T23:40:43.967Z,25.20
2019-01-16T23:43:13.866Z,25.60
2019-01-16T23:45:49.815Z,21.93
2019-01-16T23:48:25.284Z,25.63
2019-01-16T23:50:55.206Z,27.00
2019-01-16T23:53:37.040Z,25.07
2019-01-16T23:56:09.388Z,30.70
2019-01-16T23:58:39.277Z,24.40
